sensor_id;sensor_type;location;lat;lon;timestamp;temperature;humidity
23160;DHT22;11748;50.844;4.396;2022-12-01T00:00:02;8.20;99.90
23160;DHT22;11748;50.844;4.396;2022-12-01T00:02:28;8.30;99.90
23160;DHT22;11748;50.844;4.396;2022-12-01T00:04:54;8.30;99.90
23160;DHT22;11748;50.844;4.396;2022-12-01T00:07:21;8.30;99.90
23160;DHT22;11748;50.844;4.396;2022-12-01T00:09:47;8.40;99.90
23160;DHT22;11748;50.844;4.396;2022-12-01T00:12:32;8.40;99.90
23160;DHT22;11748;50.844;4.396;2022-12-01T00:14:58;8.30;99.90
23160;DHT22;11748;50.844;4.396;2022-12-01T00:17:28;8.40;99.90
23160;DHT22;11748;50.844;4.396;2022-12-01T00:19:55;8.40;99.90
23160;DHT22;11748;50.844;4.396;2022-12-01T00:22:21;8.30;99.90
23160;DHT22;11748;50.844;4.396;2022-12-01T00:24:47;8.10;99.90
23160;DHT22;11748;50.844;4.396;2022-12-01T00:27:13;8.00;99.90
23160;DHT22;11748;50.844;4.396;2022-12-01T00:29:39;8.00;99.90
23160;DHT22;11748;50.844;4.396;2022-12-01T00:32:05;8.20;99.90
23160;DHT22;11748;50.844;4.396;2022-12-01T00:34:30;8.30;99.90
23160;DHT22;11748;50.844;4.396;2022-12-01T00:36:56;8.40;99.90
23160;DHT22;11748;50.844;4.396;2022-12-01T00:39:22;8.50;99.90
23160;DHT22;11748;50.844;4.396;2022-12-01T00:41:47;8.50;99.90
23160;DHT22;11748;50.844;4.396;2022-12-01T00:44:13;8.50;99.90
23160;DHT22;11748;50.844;4.396;2022-12-01T00:46:38;8.50;99.90
23160;DHT22;11748;50.844;4.396;2022-12-01T00:49:04;8.50;99.90
23160;DHT22;11748;50.844;4.396;2022-12-01T00:51:30;8.50;99.90
23160;DHT22;11748;50.844;4.396;2022-12-01T00:53:56;8.40;99.90
23160;DHT22;11748;50.844;4.396;2022-12-01T00:56:22;8.20;99.90
23160;DHT22;11748;50.844;4.396;2022-12-01T00:58:48;8.10;99.90
23160;DHT22;11748;50.844;4.396;2022-12-01T01:01:14;7.90;99.90
23160;DHT22;11748;50.844;4.396;2022-12-01T01:03:39;7.90;99.90
23160;DHT22;11748;50.844;4.396;2022-12-01T01:06:10;7.80;99.90
23160;DHT22;11748;50.844;4.396;2022-12-01T01:08:36;8.10;99.90
23160;DHT22;11748;50.844;4.396;2022-12-01T01:11:03;8.00;99.90
23160;DHT22;11748;50.844;4.396;2022-12-01T01:13:29;7.90;99.90
23160;DHT22;11748;50.844;4.396;2022-12-01T01:16:00;7.80;99.90
23160;DHT22;11748;50.844;4.396;2022-12-01T01:18:27;7.80;99.90
23160;DHT22;11748;50.844;4.396;2022-12-01T01:20:58;8.00;99.90
23160;DHT22;11748;50.844;4.396;2022-12-01T01:23:24;7.90;99.90
23160;DHT22;11748;50.844;4.396;2022-12-01T01:25:50;8.10;99.90
23160;DHT22;11748;50.844;4.396;2022-12-01T01:28:16;8.20;99.90
23160;DHT22;11748;50.844;4.396;2022-12-01T01:30:42;8.10;99.90
23160;DHT22;11748;50.844;4.396;2022-12-01T01:33:07;7.80;99.90
23160;DHT22;11748;50.844;4.396;2022-12-01T01:35:33;7.80;99.90
23160;DHT22;11748;50.844;4.396;2022-12-01T01:37:59;7.80;99.90
23160;DHT22;11748;50.844;4.396;2022-12-01T01:40:24;7.90;99.90
23160;DHT22;11748;50.844;4.396;2022-12-01T01:42:50;8.00;99.90
23160;DHT22;11748;50.844;4.396;2022-12-01T01:45:20;7.70;99.90
23160;DHT22;11748;50.844;4.396;2022-12-01T01:47:48;7.60;99.90
23160;DHT22;11748;50.844;4.396;2022-12-01T01:50:18;7.70;99.90
23160;DHT22;11748;50.844;4.396;2022-12-01T01:53:00;7.60;99.90
23160;DHT22;11748;50.844;4.396;2022-12-01T01:55:28;7.60;99.90
23160;DHT22;11748;50.844;4.396;2022-12-01T01:57:54;7.60;99.90
23160;DHT22;11748;50.844;4.396;2022-12-01T02:00:21;7.70;99.90
23160;DHT22;11748;50.844;4.396;2022-12-01T02:02:48;7.70;99.90
23160;DHT22;11748;50.844;4.396;2022-12-01T02:05:24;7.80;99.90
23160;DHT22;11748;50.844;4.396;2022-12-01T02:07:54;7.90;99.90
23160;DHT22;11748;50.844;4.396;2022-12-01T02:10:25;7.90;99.90
23160;DHT22;11748;50.844;4.396;2022-12-01T02:16:11;8.10;99.90
23160;DHT22;11748;50.844;4.396;2022-12-01T02:24:02;8.00;99.90
23160;DHT22;11748;50.844;4.396;2022-12-01T02:26:58;8.00;99.90
23160;DHT22;11748;50.844;4.396;2022-12-01T02:32:47;7.40;99.90
23160;DHT22;11748;50.844;4.396;2022-12-01T02:38:35;7.40;99.90
23160;DHT22;11748;50.844;4.396;2022-12-01T02:41:18;7.10;99.90
23160;DHT22;11748;50.844;4.396;2022-12-01T02:43:58;7.30;99.90
23160;DHT22;11748;50.844;4.396;2022-12-01T02:46:38;7.30;99.90
23160;DHT22;11748;50.844;4.396;2022-12-01T02:49:19;7.40;99.90
23160;DHT22;11748;50.844;4.396;2022-12-01T02:51:47;7.30;99.90
23160;DHT22;11748;50.844;4.396;2022-12-01T02:54:16;7.40;99.90
23160;DHT22;11748;50.844;4.396;2022-12-01T02:56:45;7.40;99.90
23160;DHT22;11748;50.844;4.396;2022-12-01T02:59:13;7.60;99.90
23160;DHT22;11748;50.844;4.396;2022-12-01T03:05:03;7.80;99.90
23160;DHT22;11748;50.844;4.396;2022-12-01T03:13:00;7.70;99.90
23160;DHT22;11748;50.844;4.396;2022-12-01T03:21:04;7.60;99.90
23160;DHT22;11748;50.844;4.396;2022-12-01T03:23:36;7.50;99.90
23160;DHT22;11748;50.844;4.396;2022-12-01T03:26:06;7.70;99.90
23160;DHT22;11748;50.844;4.396;2022-12-01T03:28:40;7.60;99.90
23160;DHT22;11748;50.844;4.396;2022-12-01T03:31:11;7.50;99.90
23160;DHT22;11748;50.844;4.396;2022-12-01T03:33:45;7.40;99.90
23160;DHT22;11748;50.844;4.396;2022-12-01T03:36:26;7.30;99.90
23160;DHT22;11748;50.844;4.396;2022-12-01T03:38:58;7.30;99.90
23160;DHT22;11748;50.844;4.396;2022-12-01T03:41:35;7.50;99.90
23160;DHT22;11748;50.844;4.396;2022-12-01T03:44:14;7.60;99.90
23160;DHT22;11748;50.844;4.396;2022-12-01T03:47:05;7.40;99.90
23160;DHT22;11748;50.844;4.396;2022-12-01T03:49:32;7.40;99.90
23160;DHT22;11748;50.844;4.396;2022-12-01T03:54:54;7.40;99.90
23160;DHT22;11748;50.844;4.396;2022-12-01T03:57:35;7.30;99.90
23160;DHT22;11748;50.844;4.396;2022-12-01T04:00:03;7.30;99.90
23160;DHT22;11748;50.844;4.396;2022-12-01T04:02:31;7.40;99.90
23160;DHT22;11748;50.844;4.396;2022-12-01T04:04:57;7.60;99.90
23160;DHT22;11748;50.844;4.396;2022-12-01T04:07:22;7.70;99.90
23160;DHT22;11748;50.844;4.396;2022-12-01T04:09:48;7.70;99.90
23160;DHT22;11748;50.844;4.396;2022-12-01T04:12:14;7.50;99.90
23160;DHT22;11748;50.844;4.396;2022-12-01T04:14:56;7.30;99.90
23160;DHT22;11748;50.844;4.396;2022-12-01T04:17:34;7.00;99.90
23160;DHT22;11748;50.844;4.396;2022-12-01T04:20:00;7.10;99.90
23160;DHT22;11748;50.844;4.396;2022-12-01T04:22:35;7.20;99.90
23160;DHT22;11748;50.844;4.396;2022-12-01T04:25:04;7.20;99.90
23160;DHT22;11748;50.844;4.396;2022-12-01T04:27:30;7.30;99.90
23160;DHT22;11748;50.844;4.396;2022-12-01T04:29:55;7.30;99.90
23160;DHT22;11748;50.844;4.396;2022-12-01T04:32:21;7.50;99.90
23160;DHT22;11748;50.844;4.396;2022-12-01T04:34:47;7.40;99.90
23160;DHT22;11748;50.844;4.396;2022-12-01T04:37:12;7.30;99.90
23160;DHT22;11748;50.844;4.396;2022-12-01T04:39:39;7.40;99.90
23160;DHT22;11748;50.844;4.396;2022-12-01T04:42:07;7.30;99.90
23160;DHT22;11748;50.844;4.396;2022-12-01T04:44:33;7.40;99.90
23160;DHT22;11748;50.844;4.396;2022-12-01T04:46:58;7.40;99.90
23160;DHT22;11748;50.844;4.396;2022-12-01T04:49:24;7.40;99.90
23160;DHT22;11748;50.844;4.396;2022-12-01T04:51:50;7.40;99.90
23160;DHT22;11748;50.844;4.396;2022-12-01T04:54:16;7.40;99.90
23160;DHT22;11748;50.844;4.396;2022-12-01T04:56:43;7.20;99.90
23160;DHT22;11748;50.844;4.396;2022-12-01T04:59:09;7.20;99.90
23160;DHT22;11748;50.844;4.396;2022-12-01T05:01:35;7.20;99.90
23160;DHT22;11748;50.844;4.396;2022-12-01T05:04:01;7.20;99.90
23160;DHT22;11748;50.844;4.396;2022-12-01T05:06:28;7.30;99.90
23160;DHT22;11748;50.844;4.396;2022-12-01T05:08:58;7.40;99.90
23160;DHT22;11748;50.844;4.396;2022-12-01T05:11:26;7.40;99.90
23160;DHT22;11748;50.844;4.396;2022-12-01T05:13:53;7.50;99.90
23160;DHT22;11748;50.844;4.396;2022-12-01T05:16:21;7.60;99.90
23160;DHT22;11748;50.844;4.396;2022-12-01T05:18:51;7.60;99.90
23160;DHT22;11748;50.844;4.396;2022-12-01T05:21:38;7.60;99.90
23160;DHT22;11748;50.844;4.396;2022-12-01T05:24:05;7.50;99.90
23160;DHT22;11748;50.844;4.396;2022-12-01T05:26:31;7.50;99.90
23160;DHT22;11748;50.844;4.396;2022-12-01T05:28:57;7.60;99.90
23160;DHT22;11748;50.844;4.396;2022-12-01T05:31:23;7.60;99.90
23160;DHT22;11748;50.844;4.396;2022-12-01T05:33:49;7.70;99.90
23160;DHT22;11748;50.844;4.396;2022-12-01T05:36:15;7.70;99.90
23160;DHT22;11748;50.844;4.396;2022-12-01T05:38:40;7.80;99.90
23160;DHT22;11748;50.844;4.396;2022-12-01T05:41:06;7.80;99.90
23160;DHT22;11748;50.844;4.396;2022-12-01T05:43:32;7.90;99.90
23160;DHT22;11748;50.844;4.396;2022-12-01T05:45:57;7.90;99.90
23160;DHT22;11748;50.844;4.396;2022-12-01T05:48:24;7.80;99.90
23160;DHT22;11748;50.844;4.396;2022-12-01T05:50:50;7.80;99.90
23160;DHT22;11748;50.844;4.396;2022-12-01T05:53:16;7.50;99.90
23160;DHT22;11748;50.844;4.396;2022-12-01T05:55:42;7.60;99.90
23160;DHT22;11748;50.844;4.396;2022-12-01T05:58:08;7.60;99.90
23160;DHT22;11748;50.844;4.396;2022-12-01T06:00:35;7.60;99.90
23160;DHT22;11748;50.844;4.396;2022-12-01T06:03:01;7.60;99.90
23160;DHT22;11748;50.844;4.396;2022-12-01T06:05:27;7.70;99.90
23160;DHT22;11748;50.844;4.396;2022-12-01T06:07:53;7.70;99.90
23160;DHT22;11748;50.844;4.396;2022-12-01T06:10:18;7.90;99.90
23160;DHT22;11748;50.844;4.396;2022-12-01T06:12:44;8.00;99.90
23160;DHT22;11748;50.844;4.396;2022-12-01T06:15:11;8.00;99.90
23160;DHT22;11748;50.844;4.396;2022-12-01T06:17:37;8.00;99.90
23160;DHT22;11748;50.844;4.396;2022-12-01T06:20:04;7.90;99.90
23160;DHT22;11748;50.844;4.396;2022-12-01T06:22:30;7.80;99.90
23160;DHT22;11748;50.844;4.396;2022-12-01T06:24:56;7.80;99.90
23160;DHT22;11748;50.844;4.396;2022-12-01T06:27:22;7.80;99.90
23160;DHT22;11748;50.844;4.396;2022-12-01T06:29:48;7.60;99.90
23160;DHT22;11748;50.844;4.396;2022-12-01T06:32:15;7.60;99.90
23160;DHT22;11748;50.844;4.396;2022-12-01T06:34:41;7.70;99.90
23160;DHT22;11748;50.844;4.396;2022-12-01T06:37:08;7.90;99.90
23160;DHT22;11748;50.844;4.396;2022-12-01T06:39:34;8.00;99.90
23160;DHT22;11748;50.844;4.396;2022-12-01T06:42:00;8.10;99.90
23160;DHT22;11748;50.844;4.396;2022-12-01T06:44:25;7.80;99.90
23160;DHT22;11748;50.844;4.396;2022-12-01T06:46:51;7.90;99.90
23160;DHT22;11748;50.844;4.396;2022-12-01T06:49:17;8.00;99.90
23160;DHT22;11748;50.844;4.396;2022-12-01T06:51:44;7.80;99.90
23160;DHT22;11748;50.844;4.396;2022-12-01T06:54:11;7.60;99.90
23160;DHT22;11748;50.844;4.396;2022-12-01T06:56:37;7.50;99.90
23160;DHT22;11748;50.844;4.396;2022-12-01T06:59:03;7.50;99.90
23160;DHT22;11748;50.844;4.396;2022-12-01T07:01:35;7.50;99.90
23160;DHT22;11748;50.844;4.396;2022-12-01T07:04:18;7.40;99.90
23160;DHT22;11748;50.844;4.396;2022-12-01T07:06:44;7.60;99.90
23160;DHT22;11748;50.844;4.396;2022-12-01T07:09:10;7.80;99.90
23160;DHT22;11748;50.844;4.396;2022-12-01T07:11:37;8.00;99.90
23160;DHT22;11748;50.844;4.396;2022-12-01T07:14:03;8.00;99.90
23160;DHT22;11748;50.844;4.396;2022-12-01T07:16:28;8.20;99.90
23160;DHT22;11748;50.844;4.396;2022-12-01T07:18:54;8.00;99.90
23160;DHT22;11748;50.844;4.396;2022-12-01T07:21:20;7.80;99.90
23160;DHT22;11748;50.844;4.396;2022-12-01T07:23:45;7.70;99.90
23160;DHT22;11748;50.844;4.396;2022-12-01T07:26:13;7.90;99.90
23160;DHT22;11748;50.844;4.396;2022-12-01T07:28:40;7.90;99.90
23160;DHT22;11748;50.844;4.396;2022-12-01T07:31:07;7.70;99.90
23160;DHT22;11748;50.844;4.396;2022-12-01T07:33:33;7.60;99.90
23160;DHT22;11748;50.844;4.396;2022-12-01T07:35:59;7.70;99.90
23160;DHT22;11748;50.844;4.396;2022-12-01T07:38:27;7.80;99.90
23160;DHT22;11748;50.844;4.396;2022-12-01T07:40:54;7.90;99.90
23160;DHT22;11748;50.844;4.396;2022-12-01T07:43:19;7.70;99.90
23160;DHT22;11748;50.844;4.396;2022-12-01T07:45:45;7.60;99.90
23160;DHT22;11748;50.844;4.396;2022-12-01T07:48:11;7.50;99.90
23160;DHT22;11748;50.844;4.396;2022-12-01T07:50:38;7.50;99.90
23160;DHT22;11748;50.844;4.396;2022-12-01T07:53:03;7.50;99.90
23160;DHT22;11748;50.844;4.396;2022-12-01T07:55:29;7.50;99.90
23160;DHT22;11748;50.844;4.396;2022-12-01T07:57:58;7.70;99.90
23160;DHT22;11748;50.844;4.396;2022-12-01T08:00:25;7.50;99.90
23160;DHT22;11748;50.844;4.396;2022-12-01T08:02:50;7.60;99.90
23160;DHT22;11748;50.844;4.396;2022-12-01T08:05:16;7.70;99.90
23160;DHT22;11748;50.844;4.396;2022-12-01T08:07:42;7.80;99.90
23160;DHT22;11748;50.844;4.396;2022-12-01T08:10:08;7.70;99.90
23160;DHT22;11748;50.844;4.396;2022-12-01T08:12:34;7.70;99.90
23160;DHT22;11748;50.844;4.396;2022-12-01T08:15:01;7.80;99.90
23160;DHT22;11748;50.844;4.396;2022-12-01T08:17:26;7.60;99.90
23160;DHT22;11748;50.844;4.396;2022-12-01T08:19:52;7.60;99.90
23160;DHT22;11748;50.844;4.396;2022-12-01T08:22:18;7.80;99.90
23160;DHT22;11748;50.844;4.396;2022-12-01T08:24:43;8.00;99.90
23160;DHT22;11748;50.844;4.396;2022-12-01T08:27:10;8.10;99.90
23160;DHT22;11748;50.844;4.396;2022-12-01T08:29:36;7.90;99.90
23160;DHT22;11748;50.844;4.396;2022-12-01T08:32:01;7.90;99.90
23160;DHT22;11748;50.844;4.396;2022-12-01T08:34:27;8.00;99.90
23160;DHT22;11748;50.844;4.396;2022-12-01T08:36:53;8.20;99.90
23160;DHT22;11748;50.844;4.396;2022-12-01T08:39:19;8.30;99.90
23160;DHT22;11748;50.844;4.396;2022-12-01T08:41:45;8.00;99.90
23160;DHT22;11748;50.844;4.396;2022-12-01T08:44:11;8.00;99.90
23160;DHT22;11748;50.844;4.396;2022-12-01T08:46:36;8.10;99.90
23160;DHT22;11748;50.844;4.396;2022-12-01T08:49:04;8.10;99.90
23160;DHT22;11748;50.844;4.396;2022-12-01T08:51:31;8.10;99.90
23160;DHT22;11748;50.844;4.396;2022-12-01T08:53:59;8.00;99.90
23160;DHT22;11748;50.844;4.396;2022-12-01T08:56:34;7.90;99.90
23160;DHT22;11748;50.844;4.396;2022-12-01T08:59:00;8.10;99.90
23160;DHT22;11748;50.844;4.396;2022-12-01T09:01:26;8.00;99.90
23160;DHT22;11748;50.844;4.396;2022-12-01T09:03:53;8.10;99.90
23160;DHT22;11748;50.844;4.396;2022-12-01T09:06:40;8.10;99.90
23160;DHT22;11748;50.844;4.396;2022-12-01T09:09:12;8.20;99.90
23160;DHT22;11748;50.844;4.396;2022-12-01T09:11:38;8.10;99.90
23160;DHT22;11748;50.844;4.396;2022-12-01T09:14:04;8.20;99.90
23160;DHT22;11748;50.844;4.396;2022-12-01T09:16:30;8.20;99.90
23160;DHT22;11748;50.844;4.396;2022-12-01T09:18:56;8.30;99.90
23160;DHT22;11748;50.844;4.396;2022-12-01T09:21:27;8.30;99.90
23160;DHT22;11748;50.844;4.396;2022-12-01T09:23:54;8.20;99.90
23160;DHT22;11748;50.844;4.396;2022-12-01T09:26:21;8.10;99.90
23160;DHT22;11748;50.844;4.396;2022-12-01T09:28:51;7.90;99.90
23160;DHT22;11748;50.844;4.396;2022-12-01T09:31:18;8.10;99.90
23160;DHT22;11748;50.844;4.396;2022-12-01T09:33:45;8.10;99.90
23160;DHT22;11748;50.844;4.396;2022-12-01T09:36:12;8.10;99.90
23160;DHT22;11748;50.844;4.396;2022-12-01T09:38:38;8.00;99.90
23160;DHT22;11748;50.844;4.396;2022-12-01T09:41:06;8.00;99.90
23160;DHT22;11748;50.844;4.396;2022-12-01T09:43:39;7.80;99.90
23160;DHT22;11748;50.844;4.396;2022-12-01T09:46:19;7.80;99.90
23160;DHT22;11748;50.844;4.396;2022-12-01T09:48:48;7.90;99.90
23160;DHT22;11748;50.844;4.396;2022-12-01T09:51:18;8.10;99.90
23160;DHT22;11748;50.844;4.396;2022-12-01T09:53:48;8.40;99.90
23160;DHT22;11748;50.844;4.396;2022-12-01T09:56:25;8.50;99.90
23160;DHT22;11748;50.844;4.396;2022-12-01T09:59:05;8.40;99.90
23160;DHT22;11748;50.844;4.396;2022-12-01T10:01:38;8.60;99.90
23160;DHT22;11748;50.844;4.396;2022-12-01T10:12:17;8.60;99.90
23160;DHT22;11748;50.844;4.396;2022-12-01T10:14:45;8.70;99.90
23160;DHT22;11748;50.844;4.396;2022-12-01T10:17:39;8.80;99.90
23160;DHT22;11748;50.844;4.396;2022-12-01T10:25:40;9.00;99.90
23160;DHT22;11748;50.844;4.396;2022-12-01T10:31:23;9.00;99.90
23160;DHT22;11748;50.844;4.396;2022-12-01T10:36:20;9.00;99.90
23160;DHT22;11748;50.844;4.396;2022-12-01T10:38:46;9.00;99.90
23160;DHT22;11748;50.844;4.396;2022-12-01T10:41:13;9.00;99.90
23160;DHT22;11748;50.844;4.396;2022-12-01T10:43:41;9.00;99.90
23160;DHT22;11748;50.844;4.396;2022-12-01T10:48:58;9.10;99.90
23160;DHT22;11748;50.844;4.396;2022-12-01T10:51:26;9.30;99.90
23160;DHT22;11748;50.844;4.396;2022-12-01T10:54:05;9.30;99.90
23160;DHT22;11748;50.844;4.396;2022-12-01T10:56:32;9.30;99.90
23160;DHT22;11748;50.844;4.396;2022-12-01T10:59:03;9.30;99.90
23160;DHT22;11748;50.844;4.396;2022-12-01T11:01:46;9.30;99.90
23160;DHT22;11748;50.844;4.396;2022-12-01T11:07:21;9.40;99.90
23160;DHT22;11748;50.844;4.396;2022-12-01T11:12:38;9.30;99.90
23160;DHT22;11748;50.844;4.396;2022-12-01T11:15:05;9.40;99.90
23160;DHT22;11748;50.844;4.396;2022-12-01T11:17:34;9.40;99.90
23160;DHT22;11748;50.844;4.396;2022-12-01T11:20:25;9.50;99.90
23160;DHT22;11748;50.844;4.396;2022-12-01T11:22:52;9.50;99.90
23160;DHT22;11748;50.844;4.396;2022-12-01T11:25:20;9.40;99.90
23160;DHT22;11748;50.844;4.396;2022-12-01T11:27:51;9.40;99.90
23160;DHT22;11748;50.844;4.396;2022-12-01T11:30:23;9.60;99.90
23160;DHT22;11748;50.844;4.396;2022-12-01T11:32:56;9.70;99.90
23160;DHT22;11748;50.844;4.396;2022-12-01T11:35:28;9.70;99.90
23160;DHT22;11748;50.844;4.396;2022-12-01T11:38:00;9.60;99.90
23160;DHT22;11748;50.844;4.396;2022-12-01T11:40:46;9.60;99.90
23160;DHT22;11748;50.844;4.396;2022-12-01T11:43:25;9.60;99.90
23160;DHT22;11748;50.844;4.396;2022-12-01T11:45:54;9.70;99.90
23160;DHT22;11748;50.844;4.396;2022-12-01T11:48:26;9.80;99.90
23160;DHT22;11748;50.844;4.396;2022-12-01T11:53:45;9.70;99.90
23160;DHT22;11748;50.844;4.396;2022-12-01T11:56:24;9.70;99.90
23160;DHT22;11748;50.844;4.396;2022-12-01T11:59:03;9.80;99.90
23160;DHT22;11748;50.844;4.396;2022-12-01T12:13:08;9.50;99.90
23160;DHT22;11748;50.844;4.396;2022-12-01T12:16:11;9.30;99.90
23160;DHT22;11748;50.844;4.396;2022-12-01T12:18:54;9.40;99.90
23160;DHT22;11748;50.844;4.396;2022-12-01T12:21:33;9.10;99.90
23160;DHT22;11748;50.844;4.396;2022-12-01T12:26:54;9.30;99.90
23160;DHT22;11748;50.844;4.396;2022-12-01T12:32:42;9.30;99.90
23160;DHT22;11748;50.844;4.396;2022-12-01T12:35:33;9.30;99.90
23160;DHT22;11748;50.844;4.396;2022-12-01T12:44:08;9.00;99.90
23160;DHT22;11748;50.844;4.396;2022-12-01T12:49:45;9.30;99.90
23160;DHT22;11748;50.844;4.396;2022-12-01T12:57:43;9.30;99.90
23160;DHT22;11748;50.844;4.396;2022-12-01T13:00:23;9.20;99.90
23160;DHT22;11748;50.844;4.396;2022-12-01T13:08:11;9.00;99.90
23160;DHT22;11748;50.844;4.396;2022-12-01T13:13:31;9.10;99.90
23160;DHT22;11748;50.844;4.396;2022-12-01T13:16:02;9.20;99.90
23160;DHT22;11748;50.844;4.396;2022-12-01T13:18:51;9.20;99.90
23160;DHT22;11748;50.844;4.396;2022-12-01T13:21:20;9.10;99.90
23160;DHT22;11748;50.844;4.396;2022-12-01T13:23:47;9.00;99.90
23160;DHT22;11748;50.844;4.396;2022-12-01T13:26:14;9.00;99.90
23160;DHT22;11748;50.844;4.396;2022-12-01T13:28:50;9.10;99.90
23160;DHT22;11748;50.844;4.396;2022-12-01T13:31:18;9.30;99.90
23160;DHT22;11748;50.844;4.396;2022-12-01T13:33:55;9.40;99.90
23160;DHT22;11748;50.844;4.396;2022-12-01T13:36:22;9.40;99.90
23160;DHT22;11748;50.844;4.396;2022-12-01T13:41:43;9.60;99.90
23160;DHT22;11748;50.844;4.396;2022-12-01T14:00:31;9.20;99.90
23160;DHT22;11748;50.844;4.396;2022-12-01T14:05:42;8.90;99.90
23160;DHT22;11748;50.844;4.396;2022-12-01T14:10:57;9.20;99.90
23160;DHT22;11748;50.844;4.396;2022-12-01T14:13:24;9.20;99.90
23160;DHT22;11748;50.844;4.396;2022-12-01T14:15:58;8.90;99.90
23160;DHT22;11748;50.844;4.396;2022-12-01T14:18:48;8.90;99.90
23160;DHT22;11748;50.844;4.396;2022-12-01T14:21:15;9.10;99.90
23160;DHT22;11748;50.844;4.396;2022-12-01T14:24:02;9.20;99.90
23160;DHT22;11748;50.844;4.396;2022-12-01T14:26:30;9.20;99.90
23160;DHT22;11748;50.844;4.396;2022-12-01T14:34:19;9.40;99.90
23160;DHT22;11748;50.844;4.396;2022-12-01T14:39:26;9.30;99.90
23160;DHT22;11748;50.844;4.396;2022-12-01T14:42:02;9.50;99.90
23160;DHT22;11748;50.844;4.396;2022-12-01T14:44:37;9.30;99.90
23160;DHT22;11748;50.844;4.396;2022-12-01T14:49:48;9.10;99.90
23160;DHT22;11748;50.844;4.396;2022-12-01T14:55:03;9.00;99.90
23160;DHT22;11748;50.844;4.396;2022-12-01T14:57:37;8.80;99.90
23160;DHT22;11748;50.844;4.396;2022-12-01T15:00:24;8.80;99.90
23160;DHT22;11748;50.844;4.396;2022-12-01T15:02:58;9.10;99.90
23160;DHT22;11748;50.844;4.396;2022-12-01T15:05:27;9.00;99.90
23160;DHT22;11748;50.844;4.396;2022-12-01T15:07:55;9.10;99.90
23160;DHT22;11748;50.844;4.396;2022-12-01T15:10:26;9.00;99.90
23160;DHT22;11748;50.844;4.396;2022-12-01T15:13:10;8.90;99.90
23160;DHT22;11748;50.844;4.396;2022-12-01T15:15:36;8.90;99.90
23160;DHT22;11748;50.844;4.396;2022-12-01T15:18:25;9.00;99.90
23160;DHT22;11748;50.844;4.396;2022-12-01T15:21:29;8.90;99.90
23160;DHT22;11748;50.844;4.396;2022-12-01T15:26:19;8.60;99.90
23160;DHT22;11748;50.844;4.396;2022-12-01T15:28:45;8.40;99.90
23160;DHT22;11748;50.844;4.396;2022-12-01T15:31:12;8.40;99.90
23160;DHT22;11748;50.844;4.396;2022-12-01T15:33:47;8.50;99.90
23160;DHT22;11748;50.844;4.396;2022-12-01T15:36:14;8.80;99.90
23160;DHT22;11748;50.844;4.396;2022-12-01T15:38:43;8.80;99.90
23160;DHT22;11748;50.844;4.396;2022-12-01T15:41:17;8.70;99.90
23160;DHT22;11748;50.844;4.396;2022-12-01T15:43:56;8.70;99.90
23160;DHT22;11748;50.844;4.396;2022-12-01T15:46:27;8.80;99.90
23160;DHT22;11748;50.844;4.396;2022-12-01T15:49:17;8.80;99.90
23160;DHT22;11748;50.844;4.396;2022-12-01T15:51:43;8.90;99.90
23160;DHT22;11748;50.844;4.396;2022-12-01T15:54:23;8.60;99.90
23160;DHT22;11748;50.844;4.396;2022-12-01T15:56:52;8.50;99.90
23160;DHT22;11748;50.844;4.396;2022-12-01T16:01:56;8.30;99.90
23160;DHT22;11748;50.844;4.396;2022-12-01T16:04:24;8.30;99.90
23160;DHT22;11748;50.844;4.396;2022-12-01T16:06:58;8.30;99.90
23160;DHT22;11748;50.844;4.396;2022-12-01T16:09:34;8.30;99.90
23160;DHT22;11748;50.844;4.396;2022-12-01T16:12:20;8.30;99.90
23160;DHT22;11748;50.844;4.396;2022-12-01T16:15:14;8.30;99.90
23160;DHT22;11748;50.844;4.396;2022-12-01T16:17:49;8.20;99.90
23160;DHT22;11748;50.844;4.396;2022-12-01T16:20:34;8.40;99.90
23160;DHT22;11748;50.844;4.396;2022-12-01T16:23:15;8.40;99.90
23160;DHT22;11748;50.844;4.396;2022-12-01T16:25:45;8.50;99.90
23160;DHT22;11748;50.844;4.396;2022-12-01T16:28:23;8.50;99.90
23160;DHT22;11748;50.844;4.396;2022-12-01T16:30:51;8.40;99.90
23160;DHT22;11748;50.844;4.396;2022-12-01T16:33:25;8.50;99.90
23160;DHT22;11748;50.844;4.396;2022-12-01T16:35:52;8.60;99.90
23160;DHT22;11748;50.844;4.396;2022-12-01T16:40:48;8.60;99.90
23160;DHT22;11748;50.844;4.396;2022-12-01T16:43:16;8.70;99.90
23160;DHT22;11748;50.844;4.396;2022-12-01T16:45:43;8.60;99.90
23160;DHT22;11748;50.844;4.396;2022-12-01T16:48:09;8.40;99.90
23160;DHT22;11748;50.844;4.396;2022-12-01T16:50:38;8.30;99.90
23160;DHT22;11748;50.844;4.396;2022-12-01T16:53:05;8.20;99.90
23160;DHT22;11748;50.844;4.396;2022-12-01T16:56:00;8.30;99.90
23160;DHT22;11748;50.844;4.396;2022-12-01T16:58:26;8.40;99.90
23160;DHT22;11748;50.844;4.396;2022-12-01T17:00:53;8.30;99.90
23160;DHT22;11748;50.844;4.396;2022-12-01T17:03:22;8.40;99.90
23160;DHT22;11748;50.844;4.396;2022-12-01T17:05:48;8.30;99.90
23160;DHT22;11748;50.844;4.396;2022-12-01T17:08:15;8.20;99.90
23160;DHT22;11748;50.844;4.396;2022-12-01T17:10:45;8.10;99.90
23160;DHT22;11748;50.844;4.396;2022-12-01T17:13:12;8.20;99.90
23160;DHT22;11748;50.844;4.396;2022-12-01T17:15:42;8.10;99.90
23160;DHT22;11748;50.844;4.396;2022-12-01T17:18:08;8.20;99.90
23160;DHT22;11748;50.844;4.396;2022-12-01T17:20:33;8.20;99.90
23160;DHT22;11748;50.844;4.396;2022-12-01T17:22:59;8.00;99.90
23160;DHT22;11748;50.844;4.396;2022-12-01T17:25:25;8.00;99.90
23160;DHT22;11748;50.844;4.396;2022-12-01T17:27:52;8.20;99.90
23160;DHT22;11748;50.844;4.396;2022-12-01T17:30:18;8.10;99.90
23160;DHT22;11748;50.844;4.396;2022-12-01T17:32:44;8.00;99.90
23160;DHT22;11748;50.844;4.396;2022-12-01T17:35:11;8.10;99.90
23160;DHT22;11748;50.844;4.396;2022-12-01T17:37:37;8.40;99.90
23160;DHT22;11748;50.844;4.396;2022-12-01T17:40:08;8.20;99.90
23160;DHT22;11748;50.844;4.396;2022-12-01T17:42:34;8.10;99.90
23160;DHT22;11748;50.844;4.396;2022-12-01T17:45:00;8.00;99.90
23160;DHT22;11748;50.844;4.396;2022-12-01T17:47:27;8.20;99.90
23160;DHT22;11748;50.844;4.396;2022-12-01T17:49:52;8.00;99.90
23160;DHT22;11748;50.844;4.396;2022-12-01T17:52:18;8.10;99.90
23160;DHT22;11748;50.844;4.396;2022-12-01T17:54:44;8.20;99.90
23160;DHT22;11748;50.844;4.396;2022-12-01T17:57:10;8.20;99.90
23160;DHT22;11748;50.844;4.396;2022-12-01T17:59:37;8.40;99.90
23160;DHT22;11748;50.844;4.396;2022-12-01T18:02:05;8.50;99.90
23160;DHT22;11748;50.844;4.396;2022-12-01T18:04:31;8.50;99.90
23160;DHT22;11748;50.844;4.396;2022-12-01T18:06:57;8.30;99.90
23160;DHT22;11748;50.844;4.396;2022-12-01T18:09:23;8.30;99.90
23160;DHT22;11748;50.844;4.396;2022-12-01T18:11:49;8.40;99.90
23160;DHT22;11748;50.844;4.396;2022-12-01T18:14:15;8.50;99.90
23160;DHT22;11748;50.844;4.396;2022-12-01T18:16:45;8.40;99.90
23160;DHT22;11748;50.844;4.396;2022-12-01T18:19:24;8.40;99.90
23160;DHT22;11748;50.844;4.396;2022-12-01T18:22:02;8.10;99.90
23160;DHT22;11748;50.844;4.396;2022-12-01T18:24:42;8.30;99.90
23160;DHT22;11748;50.844;4.396;2022-12-01T18:27:08;8.40;99.90
23160;DHT22;11748;50.844;4.396;2022-12-01T18:29:35;8.30;99.90